Time;durP1;ratioP1;P1;durP2;ratioP2;P2;SDS_P1;SDS_P2;PMS_P1;PMS_P2;Temp;Humidity;BMP_temperature;BMP_pressure;BME280_temperature;BME280_humidity;BME280_pressure;Samples;Min_cycle;Max_cycle;Signal;HPM_P1;HPM_P2
2022/06/19 00:02:08;;;;;;;14.98;2.08;;;14.40;99.90;;;;;;5037785;28;20064;-67
2022/06/19 00:04:33;;;;;;;11.35;2.28;;;14.30;99.90;;;;;;5047120;28;20061;-68
2022/06/19 00:07:00;;;;;;;5.63;1.50;;;14.30;99.90;;;;;;5037555;28;20487;-67
2022/06/19 00:09:26;;;;;;;11.45;1.77;;;14.30;99.90;;;;;;5048737;28;20044;-67
2022/06/19 00:11:54;;;;;;;12.38;2.28;;;14.20;99.90;;;;;;5050567;28;20491;-67
2022/06/19 00:14:20;;;;;;;7.88;2.10;;;14.20;99.90;;;;;;5034036;28;21483;-68
2022/06/19 00:16:46;;;;;;;8.10;1.65;;;14.20;99.90;;;;;;5044610;28;20042;-68
2022/06/19 00:19:12;;;;;;;13.52;1.90;;;14.20;99.90;;;;;;5042409;28;20052;-67
2022/06/19 00:21:37;;;;;;;9.38;2.13;;;14.20;99.90;;;;;;5035393;28;20048;-69
2022/06/19 00:24:03;;;;;;;8.80;2.10;;;14.30;99.90;;;;;;5041595;28;20052;-68
2022/06/19 00:26:29;;;;;;;11.57;2.10;;;14.20;99.90;;;;;;5060310;28;20055;-69
2022/06/19 00:28:56;;;;;;;16.85;2.72;;;14.20;99.90;;;;;;5046912;28;20045;-67
2022/06/19 00:31:21;;;;;;;8.05;1.77;;;14.20;99.90;;;;;;5056653;28;20092;-67
2022/06/19 00:33:47;;;;;;;12.23;2.47;;;14.20;99.90;;;;;;5037258;28;20109;-68
2022/06/19 00:36:13;;;;;;;12.43;2.60;;;14.20;99.90;;;;;;5036569;28;20055;-68
2022/06/19 00:38:39;;;;;;;14.98;2.50;;;14.10;99.90;;;;;;5040865;28;20419;-69
2022/06/19 00:41:05;;;;;;;14.90;2.58;;;14.20;99.90;;;;;;5036612;28;20045;-69
2022/06/19 00:43:30;;;;;;;10.05;2.90;;;14.10;99.90;;;;;;5047778;28;20060;-68
2022/06/19 00:46:23;;;;;;;8.00;1.98;;;14.20;99.90;;;;;;5033226;28;20045;-68
2022/06/19 00:48:48;;;;;;;10.68;2.10;;;14.30;99.90;;;;;;5037947;28;20418;-67
2022/06/19 00:51:18;;;;;;;12.35;2.22;;;14.30;99.90;;;;;;5040954;28;20056;-68
2022/06/19 00:53:47;;;;;;;16.73;2.63;;;14.40;99.90;;;;;;5041719;28;20079;-68
2022/06/19 00:56:19;;;;;;;19.67;3.38;;;14.40;99.90;;;;;;5042575;28;20422;-68
2022/06/19 00:58:47;;;;;;;10.90;2.67;;;14.40;99.90;;;;;;5047119;28;20506;-68
2022/06/19 01:01:17;;;;;;;16.05;2.95;;;14.40;99.90;;;;;;5043451;28;20191;-69
2022/06/19 01:04:09;;;;;;;15.80;3.20;;;14.30;99.90;;;;;;5037142;28;20140;-68
2022/06/19 01:06:35;;;;;;;15.13;3.50;;;14.40;99.90;;;;;;5030966;28;20125;-67
2022/06/19 01:09:01;;;;;;;18.77;3.30;;;14.50;99.90;;;;;;5057438;28;20083;-68
2022/06/19 01:11:34;;;;;;;13.23;2.90;;;14.60;99.90;;;;;;5042579;28;20042;-67
2022/06/19 01:14:02;;;;;;;13.40;2.85;;;14.60;99.90;;;;;;5033459;28;20434;-67
2022/06/19 01:16:29;;;;;;;15.13;2.85;;;14.60;99.90;;;;;;5037378;28;20162;-68
2022/06/19 01:18:55;;;;;;;17.23;2.73;;;14.60;99.90;;;;;;5039618;28;20499;-68
2022/06/19 01:21:39;;;;;;;13.80;3.05;;;14.60;99.90;;;;;;5053111;28;20053;-68
2022/06/19 01:24:19;;;;;;;15.55;3.08;;;14.60;99.90;;;;;;5046619;28;20055;-68
2022/06/19 01:26:49;;;;;;;20.88;3.80;;;14.60;99.90;;;;;;5038284;28;20048;-67
2022/06/19 01:29:16;;;;;;;14.35;2.80;;;14.60;99.90;;;;;;5045183;28;20080;-67
2022/06/19 01:31:46;;;;;;;17.80;3.47;;;14.60;99.90;;;;;;5043049;28;20472;-67
2022/06/19 01:34:29;;;;;;;16.90;2.95;;;14.60;99.90;;;;;;5036803;28;20345;-68
2022/06/19 01:37:20;;;;;;;19.73;3.85;;;14.60;99.90;;;;;;5039811;28;20072;-67
2022/06/19 01:40:00;;;;;;;16.45;2.95;;;14.60;99.90;;;;;;5049192;28;20049;-67
2022/06/19 01:42:27;;;;;;;20.17;2.38;;;14.70;99.90;;;;;;5041423;28;20088;-67
2022/06/19 01:44:53;;;;;;;15.48;2.75;;;14.60;99.90;;;;;;5060387;28;20052;-68
2022/06/19 01:47:20;;;;;;;15.65;3.17;;;14.60;99.90;;;;;;5048213;28;20037;-70
2022/06/19 01:49:49;;;;;;;20.02;3.00;;;14.50;99.90;;;;;;5039771;28;20552;-68
2022/06/19 01:52:15;;;;;;;15.95;2.60;;;14.50;99.90;;;;;;5040390;28;20120;-68
2022/06/19 01:54:47;;;;;;;21.20;3.10;;;14.50;99.90;;;;;;5044919;28;20086;-68
2022/06/19 01:57:13;;;;;;;11.30;2.78;;;14.50;99.90;;;;;;5043732;28;20225;-67
2022/06/19 01:59:41;;;;;;;14.95;2.75;;;14.40;99.90;;;;;;5035199;28;20041;-67
2022/06/19 02:02:09;;;;;;;16.55;3.33;;;14.40;99.90;;;;;;5037626;28;20456;-68
2022/06/19 02:04:35;;;;;;;19.95;3.53;;;14.40;99.90;;;;;;5033647;28;20492;-68
2022/06/19 02:07:07;;;;;;;18.42;3.67;;;14.40;99.90;;;;;;5046112;28;20123;-67
2022/06/19 02:09:34;;;;;;;24.80;3.25;;;14.40;99.90;;;;;;5047655;28;20050;-67
2022/06/19 02:12:01;;;;;;;18.10;3.13;;;14.30;99.90;;;;;;5026075;28;20052;-68
2022/06/19 02:14:28;;;;;;;22.77;3.47;;;14.30;99.90;;;;;;5039962;28;20045;-68
2022/06/19 02:16:55;;;;;;;17.38;3.00;;;14.30;99.90;;;;;;5037073;28;20041;-68
2022/06/19 02:19:21;;;;;;;16.98;3.35;;;14.30;99.90;;;;;;5032752;28;20099;-68
2022/06/19 02:21:52;;;;;;;20.50;3.55;;;14.20;99.90;;;;;;5048253;28;20041;-67
2022/06/19 02:24:21;;;;;;;17.60;3.42;;;14.20;99.90;;;;;;5040688;28;20053;-68
2022/06/19 02:26:49;;;;;;;24.20;4.40;;;14.20;99.90;;;;;;5042038;28;20111;-68
2022/06/19 02:29:16;;;;;;;;;;;14.10;99.90;;;;;;5038958;28;20037;-68
2022/06/19 02:31:45;;;;;;;15.02;3.00;;;14.10;99.90;;;;;;5054212;28;19921;-67
2022/06/19 02:34:31;;;;;;;20.58;3.85;;;14.10;99.90;;;;;;5041044;28;20079;-68
2022/06/19 02:37:03;;;;;;;20.35;3.40;;;14.20;99.90;;;;;;5048280;28;20055;-67
2022/06/19 02:39:46;;;;;;;20.13;3.75;;;14.20;99.90;;;;;;5048867;28;20087;-68
2022/06/19 02:42:20;;;;;;;15.48;3.10;;;14.10;99.90;;;;;;5050732;28;20048;-69
2022/06/19 02:44:53;;;;;;;16.17;2.63;;;14.10;99.90;;;;;;5052208;28;20045;-68
2022/06/19 02:47:24;;;;;;;19.33;3.63;;;14.10;99.90;;;;;;5049705;28;20052;-68
2022/06/19 02:49:49;;;;;;;;;;;14.10;99.90;;;;;;5036312;28;20047;-68
2022/06/19 02:52:15;;;;;;;17.45;3.17;;;14.10;99.90;;;;;;5062141;28;20007;-69
2022/06/19 02:54:41;;;;;;;18.75;3.42;;;14.00;99.90;;;;;;5052923;28;20094;-67
2022/06/19 02:57:09;;;;;;;16.52;3.10;;;14.10;99.90;;;;;;5047496;28;20112;-68
2022/06/19 02:59:35;;;;;;;16.27;3.78;;;14.10;99.90;;;;;;5047416;28;20513;-69
2022/06/19 03:02:01;;;;;;;16.25;3.15;;;14.20;99.90;;;;;;5051588;28;20041;-68
2022/06/19 03:04:35;;;;;;;15.98;3.10;;;14.20;99.90;;;;;;5053622;28;20053;-69
2022/06/19 03:07:00;;;;;;;17.20;3.53;;;14.10;99.90;;;;;;5049539;28;20037;-68
2022/06/19 03:09:26;;;;;;;22.40;2.95;;;14.10;99.90;;;;;;5049513;28;20045;-68
2022/06/19 03:11:52;;;;;;;19.30;3.38;;;14.20;99.90;;;;;;5049374;28;20048;-69
2022/06/19 03:14:19;;;;;;;14.85;3.38;;;14.20;99.90;;;;;;5042801;28;20443;-70
2022/06/19 03:16:45;;;;;;;18.35;3.60;;;14.20;99.90;;;;;;5041083;28;20048;-68
2022/06/19 03:19:12;;;;;;;14.20;2.75;;;14.20;99.90;;;;;;5039669;28;20057;-69
2022/06/19 03:21:38;;;;;;;21.60;2.95;;;14.20;99.90;;;;;;5039127;28;20107;-68
2022/06/19 03:24:03;;;;;;;21.23;3.30;;;14.10;99.90;;;;;;5052105;28;20053;-68
2022/06/19 03:26:30;;;;;;;20.45;2.88;;;14.00;99.90;;;;;;5053071;28;20369;-69
2022/06/19 03:28:57;;;;;;;18.35;3.20;;;14.00;99.90;;;;;;5065750;28;20098;-68
2022/06/19 03:31:26;;;;;;;18.77;3.83;;;14.00;99.90;;;;;;5048471;28;20083;-68
2022/06/19 03:33:53;;;;;;;16.55;3.38;;;14.00;99.90;;;;;;5031944;28;20045;-70
2022/06/19 03:36:19;;;;;;;14.52;2.75;;;13.90;99.90;;;;;;5044193;28;20052;-68
2022/06/19 03:38:45;;;;;;;18.90;3.40;;;13.90;99.90;;;;;;5046515;28;20569;-69
2022/06/19 03:41:11;;;;;;;17.83;3.00;;;14.00;99.90;;;;;;5038831;28;20045;-70
2022/06/19 03:43:37;;;;;;;16.00;2.90;;;13.90;99.90;;;;;;5040514;28;20052;-70
2022/06/19 03:46:12;;;;;;;23.60;4.18;;;13.90;99.90;;;;;;5049474;28;20056;-68
2022/06/19 03:48:45;;;;;;;22.38;4.15;;;13.90;99.90;;;;;;5046010;28;20419;-68
2022/06/19 03:51:12;;;;;;;18.15;3.83;;;13.80;99.90;;;;;;5049798;28;20042;-68
2022/06/19 03:53:38;;;;;;;20.98;3.65;;;13.70;99.90;;;;;;5044368;28;20052;-70
2022/06/19 03:56:05;;;;;;;19.10;3.70;;;13.60;99.90;;;;;;5036800;28;20355;-71
2022/06/19 03:58:46;;;;;;;23.50;3.80;;;13.40;99.90;;;;;;5043005;28;20400;-69
2022/06/19 04:01:31;;;;;;;18.13;3.58;;;13.30;99.90;;;;;;5036553;28;20375;-70
2022/06/19 04:03:57;;;;;;;30.00;4.10;;;13.20;99.90;;;;;;5052019;28;20052;-70
2022/06/19 04:06:26;;;;;;;24.70;4.18;;;13.20;99.90;;;;;;5038889;28;20056;-69
2022/06/19 04:08:52;;;;;;;25.20;4.63;;;13.10;99.90;;;;;;5050984;28;20053;-70
2022/06/19 04:11:20;;;;;;;17.75;3.80;;;13.20;99.90;;;;;;5053565;28;20115;-70
2022/06/19 04:13:46;;;;;;;25.70;3.85;;;13.10;99.90;;;;;;5043335;28;20488;-69
2022/06/19 04:16:21;;;;;;;18.65;3.40;;;13.10;99.90;;;;;;5042499;28;20092;-69
2022/06/19 04:18:48;;;;;;;30.90;4.03;;;13.10;99.90;;;;;;5046967;28;20082;-70
2022/06/19 04:21:19;;;;;;;24.65;4.13;;;13.10;99.90;;;;;;5038463;28;20092;-71
2022/06/19 04:23:45;;;;;;;23.55;4.03;;;13.00;99.90;;;;;;5048348;28;20052;-71
2022/06/19 04:26:15;;;;;;;33.20;4.32;;;12.90;99.90;;;;;;5047079;28;20083;-69
2022/06/19 04:28:43;;;;;;;25.02;4.40;;;12.90;99.90;;;;;;5045491;28;20176;-70
2022/06/19 04:31:08;;;;;;;28.20;4.10;;;12.80;99.90;;;;;;5037391;28;20034;-71
2022/06/19 04:33:38;;;;;;;24.67;4.65;;;12.70;99.90;;;;;;5048793;28;20155;-71
2022/06/19 04:36:10;;;;;;;28.63;4.63;;;12.60;99.90;;;;;;5036554;28;20113;-70
2022/06/19 04:38:40;;;;;;;26.17;4.38;;;12.50;99.90;;;;;;5044714;28;20052;-70
2022/06/19 04:41:16;;;;;;;24.08;3.88;;;12.40;99.90;;;;;;5044499;28;20041;-72
2022/06/19 04:43:42;;;;;;;22.58;3.10;;;12.30;99.90;;;;;;5044333;28;20053;-70
2022/06/19 04:46:08;;;;;;;19.33;3.25;;;12.20;99.90;;;;;;5043831;28;20380;-70
2022/06/19 04:48:34;;;;;;;23.90;3.55;;;12.10;99.90;;;;;;5043060;28;20052;-70
2022/06/19 04:51:01;;;;;;;19.33;3.70;;;12.10;99.90;;;;;;5047323;28;20041;-69
2022/06/19 04:53:27;;;;;;;18.40;2.67;;;12.10;99.90;;;;;;5049498;28;20043;-71
2022/06/19 04:55:53;;;;;;;17.30;2.65;;;12.10;99.90;;;;;;5045437;28;20064;-69
2022/06/19 04:58:22;;;;;;;20.17;3.15;;;12.00;99.90;;;;;;5048400;28;20130;-69
2022/06/19 05:00:52;;;;;;;16.80;3.90;;;12.00;99.90;;;;;;5036664;28;20064;-69
2022/06/19 05:03:19;;;;;;;19.55;3.17;;;11.90;99.90;;;;;;5038132;28;20121;-68
2022/06/19 05:05:45;;;;;;;10.68;2.58;;;11.90;99.90;;;;;;5049049;28;20059;-69
2022/06/19 05:08:11;;;;;;;13.68;2.22;;;11.90;99.90;;;;;;5050811;28;20040;-68
2022/06/19 05:10:37;;;;;;;14.35;2.83;;;11.80;99.90;;;;;;5041274;28;20041;-68
2022/06/19 05:13:05;;;;;;;13.40;3.15;;;11.70;99.90;;;;;;5062632;28;20045;-69
2022/06/19 05:15:32;;;;;;;20.15;3.67;;;11.60;99.90;;;;;;5045094;28;21791;-68
2022/06/19 05:17:58;;;;;;;10.73;2.60;;;11.70;99.90;;;;;;5050930;28;20045;-68
2022/06/19 05:20:24;;;;;;;20.38;2.58;;;11.60;99.90;;;;;;5048575;28;20051;-68
2022/06/19 05:22:49;;;;;;;18.90;2.85;;;11.50;99.90;;;;;;5063092;28;20045;-69
2022/06/19 05:25:15;;;;;;;17.00;2.85;;;11.50;99.90;;;;;;5039158;28;20088;-69
2022/06/19 05:27:41;;;;;;;22.10;3.53;;;11.40;99.90;;;;;;5030503;28;20056;-69
2022/06/19 05:30:08;;;;;;;15.32;2.90;;;11.50;99.90;;;;;;5046971;28;20171;-68
2022/06/19 05:32:34;;;;;;;18.98;3.38;;;11.50;99.90;;;;;;5037097;28;20137;-69
2022/06/19 05:35:00;;;;;;;20.13;3.28;;;11.50;99.90;;;;;;5042669;28;20546;-69
2022/06/19 05:37:26;;;;;;;26.08;3.70;;;11.50;99.90;;;;;;5050241;28;20047;-69
2022/06/19 05:39:52;;;;;;;16.92;2.70;;;11.60;99.90;;;;;;5034830;28;20045;-69
2022/06/19 05:42:17;;;;;;;15.40;3.00;;;11.60;99.90;;;;;;5045682;28;20108;-68
2022/06/19 05:44:43;;;;;;;19.13;3.25;;;11.60;99.90;;;;;;5063742;28;20095;-68
2022/06/19 05:47:09;;;;;;;17.33;3.42;;;11.80;99.90;;;;;;5044572;28;20059;-69
2022/06/19 05:49:35;;;;;;;18.05;3.60;;;11.70;99.90;;;;;;5050039;28;20045;-68
2022/06/19 05:52:02;;;;;;;21.33;3.10;;;11.80;99.90;;;;;;5047836;28;20049;-68
2022/06/19 05:54:29;;;;;;;20.80;3.67;;;11.80;99.90;;;;;;5042871;28;20407;-68
2022/06/19 05:56:55;;;;;;;21.98;3.40;;;11.80;99.90;;;;;;5032954;28;20438;-69
2022/06/19 05:59:21;;;;;;;22.17;3.92;;;11.80;99.90;;;;;;5041592;28;20045;-69
2022/06/19 06:01:46;;;;;;;22.83;3.75;;;11.90;99.90;;;;;;5053001;28;20037;-68
2022/06/19 06:04:12;;;;;;;23.30;3.63;;;11.80;99.90;;;;;;5037880;28;20041;-68
2022/06/19 06:06:40;;;;;;;30.08;3.60;;;11.90;99.90;;;;;;5046049;28;20702;-68
2022/06/19 06:09:06;;;;;;;25.40;3.28;;;11.90;99.90;;;;;;5047433;28;20041;-69
2022/06/19 06:11:32;;;;;;;18.73;3.13;;;11.80;99.90;;;;;;5031846;28;20088;-70
2022/06/19 06:13:57;;;;;;;28.02;3.97;;;11.80;99.90;;;;;;5039433;28;20088;-68
2022/06/19 06:16:25;;;;;;;18.83;3.38;;;11.80;99.90;;;;;;5031388;28;20057;-69
2022/06/19 06:18:51;;;;;;;15.68;3.42;;;11.90;99.90;;;;;;5046537;28;20399;-69
2022/06/19 06:21:19;;;;;;;18.52;3.30;;;11.90;99.90;;;;;;5038133;28;20041;-69
2022/06/19 06:23:45;;;;;;;;;;;11.90;99.90;;;;;;5045163;28;20045;-69
2022/06/19 06:26:14;;;;;;;23.23;3.67;;;11.90;99.90;;;;;;5035901;28;19928;-68
2022/06/19 06:28:43;;;;;;;26.20;3.42;;;11.90;99.90;;;;;;5049306;28;20053;-67
2022/06/19 06:31:10;;;;;;;14.27;2.17;;;12.00;99.90;;;;;;5044165;28;20119;-69
2022/06/19 06:33:35;;;;;;;22.40;3.25;;;12.00;99.90;;;;;;5046955;28;20052;-68
2022/06/19 06:36:01;;;;;;;23.95;3.33;;;12.10;99.90;;;;;;5041353;28;20041;-69
2022/06/19 06:38:27;;;;;;;27.42;4.35;;;12.10;99.90;;;;;;5040966;28;20041;-68
2022/06/19 06:40:53;;;;;;;18.38;3.47;;;12.20;99.90;;;;;;5044187;28;20045;-67
2022/06/19 06:43:20;;;;;;;21.20;3.70;;;12.30;99.90;;;;;;5050075;28;20474;-68
2022/06/19 06:45:45;;;;;;;20.33;3.10;;;12.30;99.90;;;;;;5045197;28;20091;-67
2022/06/19 06:48:11;;;;;;;23.23;3.60;;;12.30;99.90;;;;;;5058677;28;20041;-68
2022/06/19 06:50:38;;;;;;;17.63;3.00;;;12.50;99.90;;;;;;5050095;28;20052;-68
2022/06/19 06:53:05;;;;;;;18.15;3.17;;;12.40;99.90;;;;;;5051749;28;20049;-68
2022/06/19 06:55:30;;;;;;;19.60;3.15;;;12.40;99.90;;;;;;5042812;28;20375;-69
2022/06/19 06:57:56;;;;;;;19.10;3.10;;;12.50;99.90;;;;;;5047362;28;20056;-69
2022/06/19 07:00:23;;;;;;;24.77;3.55;;;12.50;99.90;;;;;;5017080;28;20041;-68
2022/06/19 07:02:50;;;;;;;13.93;3.10;;;12.60;99.90;;;;;;5040967;28;20376;-69
2022/06/19 07:05:16;;;;;;;20.90;3.40;;;12.60;99.90;;;;;;5032318;28;20049;-68
2022/06/19 07:07:42;;;;;;;14.80;2.90;;;12.60;99.90;;;;;;5048425;28;20041;-68
2022/06/19 07:10:09;;;;;;;22.08;3.17;;;12.70;99.90;;;;;;5039657;28;20047;-68
2022/06/19 07:12:35;;;;;;;18.17;2.90;;;12.70;99.90;;;;;;5044503;28;20045;-68
2022/06/19 07:15:00;;;;;;;22.20;3.38;;;12.70;99.90;;;;;;5042564;28;20072;-68
2022/06/19 07:17:27;;;;;;;17.48;2.80;;;12.80;99.90;;;;;;5035833;28;20364;-68
2022/06/19 07:19:52;;;;;;;24.95;3.03;;;12.80;99.90;;;;;;5056426;28;20044;-68
2022/06/19 07:22:18;;;;;;;24.02;3.60;;;12.80;99.90;;;;;;5043126;28;20453;-69
2022/06/19 07:24:49;;;;;;;18.63;2.92;;;12.80;99.90;;;;;;5043037;28;20110;-68
2022/06/19 07:27:15;;;;;;;14.80;3.20;;;12.80;99.90;;;;;;5041342;28;20128;-69
2022/06/19 07:29:42;;;;;;;21.00;3.05;;;12.90;99.90;;;;;;5046012;28;20488;-68
2022/06/19 07:32:09;;;;;;;19.58;3.25;;;12.90;99.90;;;;;;5050059;28;20041;-67
2022/06/19 07:34:35;;;;;;;14.85;2.33;;;13.10;99.90;;;;;;5048317;28;20033;-68
2022/06/19 07:37:00;;;;;;;16.92;2.95;;;13.10;99.90;;;;;;5050434;28;20475;-68
2022/06/19 07:39:26;;;;;;;13.13;2.65;;;13.10;99.90;;;;;;5033445;28;20044;-69
2022/06/19 07:41:52;;;;;;;24.70;3.10;;;13.10;99.90;;;;;;5048182;28;20068;-69
2022/06/19 07:44:17;;;;;;;11.73;2.78;;;13.20;99.90;;;;;;5046975;28;20505;-70
2022/06/19 07:52:13;;;;;;;13.02;2.58;;;13.30;99.90;;;;;;5049366;28;20053;-69
2022/06/19 07:54:39;;;;;;;20.40;3.22;;;13.20;99.90;;;;;;5049909;28;20041;-69
2022/06/19 07:57:06;;;;;;;17.50;3.45;;;13.20;99.90;;;;;;5047109;28;20275;-68
2022/06/19 07:59:31;;;;;;;15.60;2.97;;;13.30;99.90;;;;;;5047554;28;20195;-69
2022/06/19 08:01:57;;;;;;;20.92;3.33;;;13.30;99.90;;;;;;5049683;28;20508;-68
2022/06/19 08:04:23;;;;;;;11.20;2.58;;;13.40;99.90;;;;;;5036171;28;20156;-67
2022/06/19 08:06:49;;;;;;;15.43;2.88;;;13.40;99.90;;;;;;5050383;28;20045;-68
2022/06/19 08:09:15;;;;;;;15.25;2.42;;;13.30;99.90;;;;;;5047034;28;20052;-67
2022/06/19 08:11:41;;;;;;;13.50;2.28;;;13.40;99.90;;;;;;5038227;28;20041;-67
2022/06/19 08:14:06;;;;;;;10.15;2.50;;;13.30;99.90;;;;;;5047497;28;20070;-67
2022/06/19 08:16:32;;;;;;;13.55;2.58;;;13.40;99.90;;;;;;5046913;28;20044;-68
2022/06/19 08:18:58;;;;;;;13.07;2.72;;;13.30;99.90;;;;;;5043635;28;20041;-68
2022/06/19 08:21:24;;;;;;;19.08;2.50;;;13.30;99.90;;;;;;5044493;28;20510;-68
2022/06/19 08:23:49;;;;;;;12.98;2.58;;;13.20;99.90;;;;;;5047538;28;20048;-67
2022/06/19 08:26:15;;;;;;;15.98;2.47;;;13.20;99.90;;;;;;5053395;28;20055;-68
2022/06/19 08:29:02;;;;;;;11.82;2.55;;;13.30;99.90;;;;;;5051299;28;20479;-68
2022/06/19 08:31:28;;;;;;;13.52;2.75;;;13.30;99.90;;;;;;5042133;28;20147;-69
2022/06/19 08:33:54;;;;;;;11.40;2.33;;;13.30;99.90;;;;;;5053117;28;20045;-69
2022/06/19 08:36:21;;;;;;;10.45;2.83;;;13.40;99.90;;;;;;5044354;28;20061;-69
2022/06/19 08:38:56;;;;;;;11.32;2.35;;;13.50;99.90;;;;;;5046852;28;20045;-68
2022/06/19 08:41:25;;;;;;;14.80;2.33;;;13.50;99.90;;;;;;5039289;28;20440;-68
2022/06/19 08:44:09;;;;;;;11.95;2.58;;;13.60;99.90;;;;;;5042763;28;20415;-68
2022/06/19 08:47:08;;;;;;;12.63;2.60;;;13.60;99.90;;;;;;5043597;28;20060;-69
2022/06/19 08:49:55;;;;;;;11.20;2.42;;;13.60;99.90;;;;;;5044418;28;20064;-68
2022/06/19 08:52:53;;;;;;;13.65;2.95;;;13.60;99.90;;;;;;5045485;28;20420;-68
2022/06/19 08:55:45;;;;;;;16.23;2.70;;;13.60;99.90;;;;;;5067673;28;20127;-69
2022/06/19 08:58:17;;;;;;;15.02;3.20;;;13.50;99.90;;;;;;5037746;28;20164;-69
2022/06/19 09:00:59;;;;;;;12.48;2.72;;;13.60;99.90;;;;;;5044795;28;20045;-69
2022/06/19 09:06:48;;;;;;;14.45;2.42;;;13.70;99.90;;;;;;5049371;28;20056;-68
2022/06/19 09:09:56;;;;;;;9.48;1.92;;;13.80;99.90;;;;;;5045572;28;20458;-70
2022/06/19 09:12:21;;;;;;;7.85;1.95;;;13.80;99.90;;;;;;5029437;28;20050;-68
2022/06/19 09:15:08;;;;;;;7.93;2.42;;;13.70;99.90;;;;;;5039631;28;20163;-68
2022/06/19 09:18:01;;;;;;;11.23;2.20;;;13.80;99.90;;;;;;5048214;28;20452;-68
2022/06/19 09:21:08;;;;;;;7.68;2.30;;;13.80;99.90;;;;;;5047484;28;20096;-68
2022/06/19 09:23:40;;;;;;;9.43;2.15;;;13.80;99.90;;;;;;5031790;28;20131;-69
2022/06/19 09:26:15;;;;;;;7.03;1.77;;;13.80;99.90;;;;;;5038225;28;20045;-69
2022/06/19 09:28:53;;;;;;;9.48;2.00;;;13.80;99.90;;;;;;5049366;28;20049;-69
2022/06/19 09:31:49;;;;;;;12.20;2.05;;;13.90;99.90;;;;;;5061452;28;20041;-67
2022/06/19 09:34:21;;;;;;;9.45;1.95;;;13.90;99.90;;;;;;5044223;28;20048;-70
2022/06/19 09:36:57;;;;;;;7.43;1.85;;;13.90;99.90;;;;;;5064294;28;20072;-71
2022/06/19 09:39:35;;;;;;;13.48;1.90;;;14.00;99.90;;;;;;5055646;28;20048;-70
2022/06/19 09:42:04;;;;;;;7.53;1.75;;;14.00;99.90;;;;;;5039911;28;20052;-67
2022/06/19 09:44:36;;;;;;;8.25;1.70;;;14.00;99.90;;;;;;5039640;28;20455;-68
2022/06/19 09:47:27;;;;;;;11.18;2.67;;;13.90;99.90;;;;;;5044732;28;20521;-69
2022/06/19 09:49:53;;;;;;;11.68;2.10;;;14.00;99.90;;;;;;5031973;28;20046;-68
2022/06/19 09:52:31;;;;;;;9.80;1.90;;;14.00;99.90;;;;;;5045139;28;21196;-68
2022/06/19 09:55:09;;;;;;;5.65;1.30;;;14.10;99.90;;;;;;5050815;28;20080;-68
2022/06/19 09:57:44;;;;;;;10.63;2.33;;;14.10;99.90;;;;;;5050269;28;20344;-68
2022/06/19 10:00:17;;;;;;;11.85;1.60;;;14.20;99.90;;;;;;5052769;28;20391;-68
2022/06/19 10:02:51;;;;;;;6.25;1.88;;;14.30;99.90;;;;;;5043539;28;20156;-67
2022/06/19 10:05:41;;;;;;;6.45;1.40;;;14.40;99.90;;;;;;5067377;28;20053;-69
2022/06/19 10:08:29;;;;;;;5.68;1.60;;;14.50;99.90;;;;;;5059547;28;20064;-69
2022/06/19 10:11:10;;;;;;;11.20;1.92;;;14.50;99.90;;;;;;5030556;28;20049;-68
2022/06/19 10:13:44;;;;;;;8.43;1.80;;;14.50;99.90;;;;;;5045610;28;20033;-68
2022/06/19 10:16:24;;;;;;;8.95;1.50;;;14.50;99.90;;;;;;5038383;28;20084;-69
2022/06/19 10:18:53;;;;;;;6.57;1.63;;;14.50;99.90;;;;;;5046815;28;20037;-68
2022/06/19 10:24:40;;;;;;;10.15;1.77;;;14.60;99.90;;;;;;5030967;28;20052;-69
2022/06/19 10:27:23;;;;;;;10.52;2.05;;;14.60;99.90;;;;;;5037229;28;20045;-69
2022/06/19 10:29:54;;;;;;;6.15;1.25;;;14.70;99.90;;;;;;5040503;28;20045;-68
2022/06/19 10:32:40;;;;;;;6.07;1.77;;;14.70;99.90;;;;;;5044030;28;20128;-69
2022/06/19 10:35:15;;;;;;;4.15;1.50;;;14.70;99.90;;;;;;5050993;28;20057;-69
2022/06/19 10:37:56;;;;;;;4.35;1.40;;;14.80;99.90;;;;;;5048013;28;20082;-68
2022/06/19 10:40:31;;;;;;;5.70;2.03;;;14.90;99.90;;;;;;5046407;28;21243;-68
2022/06/19 10:43:18;;;;;;;5.75;1.55;;;15.00;99.90;;;;;;5039880;28;20049;-68
2022/06/19 10:45:48;;;;;;;7.93;1.60;;;15.20;99.90;;;;;;5041576;28;20402;-68
2022/06/19 10:48:29;;;;;;;2.15;1.20;;;15.30;99.90;;;;;;5044440;28;20053;-67
2022/06/19 10:51:22;;;;;;;4.25;1.30;;;15.30;99.90;;;;;;5046196;28;20498;-68
2022/06/19 10:53:54;;;;;;;4.88;1.30;;;15.30;99.90;;;;;;5036400;28;20041;-68
2022/06/19 10:56:31;;;;;;;3.83;1.27;;;15.30;99.90;;;;;;5052013;28;20049;-68
2022/06/19 10:58:58;;;;;;;2.63;1.10;;;15.30;99.90;;;;;;5051673;28;20041;-68
2022/06/19 11:04:18;;;;;;;3.58;1.10;;;15.30;99.90;;;;;;5050753;28;20060;-70
2022/06/19 11:06:57;;;;;;;1.67;1.00;;;15.30;99.90;;;;;;5043437;28;20050;-69
2022/06/19 11:09:31;;;;;;;4.60;1.23;;;15.50;99.90;;;;;;5030453;28;20100;-69
2022/06/19 11:12:05;;;;;;;2.20;1.10;;;15.50;99.90;;;;;;5037738;28;20055;-68
2022/06/19 11:14:36;;;;;;;3.83;1.08;;;15.40;99.90;;;;;;5048425;28;20063;-67
2022/06/19 11:17:15;;;;;;;4.63;1.30;;;15.40;99.90;;;;;;5061686;28;20103;-67
2022/06/19 11:19:48;;;;;;;;;;;15.40;99.90;;;;;;5051601;28;20049;-68
2022/06/19 11:22:41;;;;;;;6.00;1.63;;;15.30;99.90;;;;;;5041052;28;20015;-69
2022/06/19 11:25:21;;;;;;;5.53;1.83;;;15.20;99.90;;;;;;5032054;28;20056;-68
2022/06/19 11:27:58;;;;;;;4.45;1.35;;;15.10;99.90;;;;;;5045634;28;20049;-67
2022/06/19 11:30:50;;;;;;;6.15;1.52;;;15.10;99.90;;;;;;5041325;28;20091;-67
2022/06/19 11:33:35;;;;;;;8.55;1.70;;;15.00;99.90;;;;;;5055339;28;20061;-69
2022/06/19 11:36:08;;;;;;;4.13;1.30;;;14.90;99.90;;;;;;5039616;28;20964;-69
2022/06/19 11:38:36;;;;;;;3.83;1.38;;;14.80;99.90;;;;;;5048988;28;20132;-68
2022/06/19 11:41:25;;;;;;;6.20;1.52;;;14.70;99.90;;;;;;5042087;28;20767;-69
2022/06/19 11:44:07;;;;;;;5.15;1.50;;;14.70;99.90;;;;;;5046265;28;20056;-69
2022/06/19 11:46:46;;;;;;;6.72;1.80;;;14.70;99.90;;;;;;5037271;28;20502;-68
2022/06/19 11:49:16;;;;;;;;;;;14.60;99.90;;;;;;5037462;28;20041;-69
2022/06/19 11:51:44;;;;;;;9.10;2.15;;;14.60;99.90;;;;;;5030886;28;19925;-69
2022/06/19 11:54:13;;;;;;;4.80;1.60;;;14.50;99.90;;;;;;5043893;28;20509;-69
2022/06/19 11:56:39;;;;;;;7.82;2.00;;;14.60;99.90;;;;;;5047828;28;20128;-68
2022/06/19 11:59:30;;;;;;;8.55;2.03;;;14.60;99.90;;;;;;5038130;28;20542;-69
2022/06/19 12:01:56;;;;;;;8.63;2.50;;;14.60;99.90;;;;;;5051311;28;20127;-69
2022/06/19 12:04:34;;;;;;;8.98;2.10;;;14.60;99.90;;;;;;5044189;28;20065;-69
2022/06/19 12:07:13;;;;;;;6.35;1.90;;;14.70;99.90;;;;;;5032961;28;20126;-68
2022/06/19 12:09:43;;;;;;;7.43;2.03;;;14.70;99.90;;;;;;5044257;28;20053;-68
2022/06/19 12:12:11;;;;;;;5.40;1.58;;;14.70;99.90;;;;;;5033572;28;20115;-69
2022/06/19 12:14:53;;;;;;;8.32;1.90;;;14.60;99.90;;;;;;5043381;28;20154;-68
2022/06/19 12:17:31;;;;;;;5.90;1.80;;;14.60;99.90;;;;;;5035866;28;20037;-69
2022/06/19 12:20:07;;;;;;;7.22;1.80;;;14.50;99.90;;;;;;5048654;28;20064;-68
2022/06/19 12:22:44;;;;;;;9.70;2.05;;;14.60;99.90;;;;;;5047045;28;20098;-69
2022/06/19 12:25:23;;;;;;;6.97;1.98;;;14.60;99.90;;;;;;5044829;28;20048;-68
2022/06/19 12:28:08;;;;;;;7.25;1.52;;;14.60;99.90;;;;;;5043037;28;20510;-70
2022/06/19 12:30:41;;;;;;;8.50;1.60;;;14.60;99.90;;;;;;5037881;28;20949;-70
2022/06/19 12:33:20;;;;;;;7.55;2.20;;;14.80;99.90;;;;;;5034743;28;20061;-69
2022/06/19 12:35:48;;;;;;;9.52;2.33;;;15.10;99.90;;;;;;5041341;28;20402;-69
2022/06/19 12:38:17;;;;;;;9.10;2.05;;;15.30;99.90;;;;;;5037562;28;20052;-69
2022/06/19 12:40:59;;;;;;;9.30;1.92;;;15.50;99.90;;;;;;5046187;28;20203;-70
2022/06/19 12:43:50;;;;;;;5.38;1.60;;;15.70;99.90;;;;;;5016483;28;20122;-70
2022/06/19 12:46:34;;;;;;;5.05;1.80;;;15.90;99.90;;;;;;5046685;28;20048;-69
2022/06/19 12:49:41;;;;;;;5.45;1.67;;;15.90;99.90;;;;;;5049364;28;20045;-67
2022/06/19 12:52:44;;;;;;;6.63;1.95;;;15.90;99.90;;;;;;5035475;28;20045;-67
2022/06/19 12:55:53;;;;;;;9.20;1.92;;;16.10;99.90;;;;;;5048759;28;20049;-69
2022/06/19 12:58:24;;;;;;;9.48;1.60;;;16.30;99.90;;;;;;5079249;28;20078;-68
2022/06/19 13:01:03;;;;;;;4.90;1.30;;;16.40;99.90;;;;;;5045565;28;20265;-69
2022/06/19 13:03:41;;;;;;;6.63;1.73;;;16.60;99.90;;;;;;5036825;28;20052;-69
2022/06/19 13:06:42;;;;;;;4.33;1.77;;;16.60;99.90;;;;;;5042718;28;20038;-70
2022/06/19 13:09:28;;;;;;;6.72;1.92;;;16.60;99.90;;;;;;5003176;28;20065;-68
2022/06/19 13:12:00;;;;;;;8.40;1.73;;;16.60;99.90;;;;;;5044021;28;20044;-69
2022/06/19 13:14:37;;;;;;;8.77;1.75;;;16.40;99.90;;;;;;5045823;28;20548;-69
2022/06/19 13:17:10;;;;;;;5.85;1.98;;;16.40;99.90;;;;;;5045964;28;20048;-67
2022/06/19 13:20:03;;;;;;;7.47;1.58;;;16.40;99.90;;;;;;5049975;28;20053;-69